createdAt,value
2023-04-01T00:00:12.831Z,25.21
2023-04-01T00:02:44.858Z,25.18
2023-04-01T00:05:15.811Z,25.15
2023-04-01T00:07:50.200Z,25.07
2023-04-01T00:10:21.178Z,25.01
2023-04-01T00:12:52.003Z,24.94
2023-04-01T00:15:22.358Z,24.76
2023-04-01T00:17:53.083Z,24.70
2023-04-01T00:20:24.216Z,24.60
2023-04-01T00:22:54.914Z,24.43
2023-04-01T00:25:26.649Z,24.35
2023-04-01T00:27:58.173Z,24.25
2023-04-01T00:30:28.664Z,24.20
2023-04-01T00:33:00.154Z,24.13
2023-04-01T00:35:32.043Z,24.12
2023-04-01T00:38:04.293Z,24.04
2023-04-01T00:40:42.228Z,23.95
2023-04-01T00:43:17.176Z,23.84
2023-04-01T00:45:49.607Z,23.85
2023-04-01T00:48:25.244Z,23.82
2023-04-01T00:51:00.884Z,23.75
2023-04-01T00:53:32.594Z,23.76
2023-04-01T00:56:17.338Z,23.74
2023-04-01T00:58:54.439Z,23.71
2023-04-01T01:01:26.942Z,23.59
2023-04-01T01:03:57.341Z,23.59
2023-04-01T01:06:27.703Z,23.58
2023-04-01T01:09:13.236Z,23.54
2023-04-01T01:11:50.229Z,23.43
2023-04-01T01:14:49.102Z,23.33
2023-04-01T01:17:54.313Z,23.24
2023-04-01T01:20:44.767Z,23.20
2023-04-01T01:23:26.844Z,23.20
2023-04-01T01:26:42.947Z,23.21
2023-04-01T01:29:52.520Z,23.18
2023-04-01T01:32:52.848Z,23.11
2023-04-01T01:35:48.356Z,23.07
2023-04-01T01:38:26.803Z,23.02
2023-04-01T01:41:08.701Z,23.06
2023-04-01T01:43:44.300Z,23.00
2023-04-01T01:46:20.206Z,23.00
2023-04-01T01:48:54.391Z,23.00
2023-04-01T01:51:26.496Z,22.97
2023-04-01T01:53:58.110Z,22.93
2023-04-01T01:56:32.089Z,22.82
2023-04-01T01:59:07.963Z,22.74
2023-04-01T02:01:43.261Z,22.62
2023-04-01T02:04:19.058Z,22.55
2023-04-01T02:07:06.871Z,22.43
2023-04-01T02:09:38.249Z,22.29
2023-04-01T02:12:12.733Z,22.18
2023-04-01T02:14:48.465Z,22.12
2023-04-01T02:17:31.496Z,22.08
2023-04-01T02:20:17.559Z,21.97
2023-04-01T02:22:54.808Z,21.81
2023-04-01T02:25:30.211Z,21.77
2023-04-01T02:28:03.641Z,21.71
2023-04-01T02:30:37.103Z,21.68
2023-04-01T02:33:10.188Z,21.61
2023-04-01T02:35:41.493Z,21.62
2023-04-01T02:38:12.070Z,21.62
2023-04-01T02:40:52.456Z,21.61
2023-04-01T02:43:23.745Z,21.58
2023-04-01T02:45:54.137Z,21.54
2023-04-01T02:48:24.951Z,21.51
2023-04-01T02:50:55.449Z,21.47
2023-04-01T02:53:26.937Z,21.43
2023-04-01T02:55:58.336Z,21.40
2023-04-01T02:58:28.437Z,21.43
2023-04-01T03:00:58.583Z,21.44
2023-04-01T03:03:28.724Z,21.46
2023-04-01T03:06:01.012Z,21.46
2023-04-01T03:08:32.168Z,21.47
2023-04-01T03:11:03.394Z,21.47
2023-04-01T03:13:37.119Z,21.48
2023-04-01T03:16:07.821Z,21.50
2023-04-01T03:18:38.679Z,21.53
2023-04-01T03:21:25.899Z,21.57
2023-04-01T03:23:55.936Z,21.58
2023-04-01T03:26:26.671Z,21.58
2023-04-01T03:28:58.547Z,21.64
2023-04-01T03:31:29.095Z,21.65
2023-04-01T03:34:01.316Z,21.64
2023-04-01T03:36:32.820Z,21.67
2023-04-01T03:39:04.109Z,21.64
2023-04-01T03:41:43.546Z,21.58
2023-04-01T03:44:15.544Z,21.40
2023-04-01T03:46:46.763Z,21.33
2023-04-01T03:49:19.634Z,21.24
2023-04-01T03:51:49.929Z,21.24
2023-04-01T03:54:23.708Z,21.19
2023-04-01T03:56:54.873Z,21.27
2023-04-01T03:59:25.460Z,21.23
2023-04-01T04:01:55.610Z,21.14
2023-04-01T04:04:30.580Z,21.10
2023-04-01T04:07:02.167Z,21.10
2023-04-01T04:09:39.289Z,21.13
2023-04-01T04:12:13.489Z,21.14
2023-04-01T04:14:43.822Z,21.19
2023-04-01T04:17:18.532Z,21.13
2023-04-01T04:19:49.025Z,21.13
2023-04-01T04:22:19.892Z,21.13
2023-04-01T04:24:51.634Z,21.16
2023-04-01T04:27:24.453Z,21.14
2023-04-01T04:30:06.235Z,21.16
2023-04-01T04:32:39.095Z,21.16
2023-04-01T04:35:10.341Z,21.20
2023-04-01T04:37:40.867Z,21.24
2023-04-01T04:40:11.776Z,21.23
2023-04-01T04:42:43.259Z,21.23
2023-04-01T04:45:17.725Z,21.27
2023-04-01T04:47:57.632Z,21.27
2023-04-01T04:50:30.074Z,21.31
2023-04-01T04:53:01.297Z,21.36
2023-04-01T04:55:36.873Z,21.36
2023-04-01T04:58:25.345Z,21.34
2023-04-01T05:00:56.839Z,21.38
2023-04-01T05:03:31.525Z,21.40
2023-04-01T05:06:03.358Z,21.36
2023-04-01T05:08:36.361Z,21.30
2023-04-01T05:11:07.046Z,21.20
2023-04-01T05:13:41.025Z,21.16
2023-04-01T05:16:19.443Z,21.14
2023-04-01T05:18:52.016Z,21.02
2023-04-01T05:21:22.358Z,20.76
2023-04-01T05:23:56.026Z,20.56
2023-04-01T05:26:27.837Z,20.46
2023-04-01T05:28:58.289Z,20.35
2023-04-01T05:31:29.296Z,20.32
2023-04-01T05:34:03.966Z,20.28
2023-04-01T05:36:41.812Z,20.29
2023-04-01T05:39:15.871Z,20.22
2023-04-01T05:41:47.665Z,20.26
2023-04-01T05:44:18.302Z,20.31
2023-04-01T05:47:08.472Z,20.29
2023-04-01T05:49:42.525Z,20.25
2023-04-01T05:52:19.644Z,20.25
2023-04-01T05:54:52.823Z,20.24
2023-04-01T05:57:23.806Z,20.18
2023-04-01T05:59:54.075Z,20.14
2023-04-01T06:02:24.437Z,20.13
2023-04-01T06:05:20.159Z,20.14
2023-04-01T06:08:09.924Z,20.10
2023-04-01T06:10:55.247Z,20.13
2023-04-01T06:14:08.392Z,20.08
2023-04-01T06:16:49.822Z,20.00
2023-04-01T06:19:44.064Z,20.00
2023-04-01T06:22:18.005Z,19.88
2023-04-01T06:25:15.469Z,19.84
2023-04-01T06:28:10.747Z,19.77
2023-04-01T06:30:51.746Z,19.73
2023-04-01T06:33:57.185Z,19.69
2023-04-01T06:36:56.163Z,19.63
2023-04-01T06:39:52.574Z,19.64
2023-04-01T06:42:34.612Z,19.57
2023-04-01T06:45:10.680Z,19.57
2023-04-01T06:48:17.902Z,19.54
2023-04-01T06:51:21.163Z,19.49
2023-04-01T06:54:14.222Z,19.42
2023-04-01T06:57:21.283Z,19.39
2023-04-01T06:59:52.642Z,19.39
2023-04-01T07:02:49.269Z,19.37
2023-04-01T07:05:20.152Z,19.36
2023-04-01T07:07:58.318Z,19.32
2023-04-01T07:10:46.799Z,19.23
2023-04-01T07:13:50.420Z,19.16
2023-04-01T07:16:35.585Z,19.06
2023-04-01T07:19:26.686Z,18.99
2023-04-01T07:22:27.460Z,18.96
2023-04-01T07:25:29.116Z,18.92
2023-04-01T07:28:19.394Z,18.87
2023-04-01T07:31:30.979Z,18.87
2023-04-01T07:34:13.872Z,18.81
2023-04-01T07:36:55.667Z,18.75
2023-04-01T07:39:44.519Z,18.72
2023-04-01T07:42:34.873Z,18.65
2023-04-01T07:45:32.253Z,18.62
2023-04-01T07:48:37.840Z,18.59
2023-04-01T07:51:14.880Z,18.52
2023-04-01T07:54:13.335Z,18.51
2023-04-01T07:56:54.407Z,18.45
2023-04-01T07:59:37.974Z,18.44
2023-04-01T08:03:14.518Z,18.38
2023-04-01T08:06:22.997Z,18.34
2023-04-01T08:09:17.114Z,18.24
2023-04-01T08:12:40.637Z,18.18
2023-04-01T08:15:57.470Z,18.16
2023-04-01T08:18:59.756Z,18.10
2023-04-01T08:21:44.820Z,18.04
2023-04-01T08:24:48.332Z,17.98
2023-04-01T08:27:26.721Z,17.93
2023-04-01T08:30:18.628Z,17.93
2023-04-01T08:33:03.263Z,17.90
2023-04-01T08:35:52.356Z,17.87
2023-04-01T08:38:32.723Z,17.77
2023-04-01T08:41:30.483Z,17.83
2023-04-01T08:44:38.186Z,17.80
2023-04-01T08:47:33.840Z,17.77
2023-04-01T08:50:05.246Z,17.67
2023-04-01T08:53:04.127Z,17.65
2023-04-01T08:55:41.313Z,17.65
2023-04-01T08:58:25.628Z,17.66
2023-04-01T09:01:30.472Z,17.66
2023-04-01T09:04:18.884Z,17.62
2023-04-01T09:07:21.150Z,17.55
2023-04-01T09:10:01.981Z,17.52
2023-04-01T09:13:02.539Z,17.52
2023-04-01T09:15:52.968Z,17.49
2023-04-01T09:18:58.458Z,17.49
2023-04-01T09:21:45.232Z,17.46
2023-04-01T09:24:55.650Z,17.47
2023-04-01T09:27:37.286Z,17.45
2023-04-01T09:30:17.158Z,17.43
2023-04-01T09:33:05.925Z,17.42
2023-04-01T09:36:14.422Z,17.42
2023-04-01T09:38:56.461Z,17.40
2023-04-01T09:41:31.998Z,17.36
2023-04-01T09:44:41.187Z,17.38
2023-04-01T09:47:33.413Z,17.39
2023-04-01T09:50:39.979Z,17.38
2023-04-01T09:53:23.715Z,17.38
2023-04-01T09:56:34.453Z,17.36
2023-04-01T09:59:28.059Z,17.43
2023-04-01T10:03:00.864Z,17.49
2023-04-01T10:06:02.498Z,17.50
2023-04-01T10:09:09.939Z,17.59
2023-04-01T10:12:00.164Z,17.65
2023-04-01T10:14:46.279Z,17.66
2023-04-01T10:17:41.683Z,17.66
2023-04-01T10:20:51.344Z,17.72
2023-04-01T10:23:43.132Z,17.75
2023-04-01T10:26:28.755Z,17.73
2023-04-01T10:29:31.884Z,17.76
2023-04-01T10:33:02.115Z,17.86
2023-04-01T10:35:36.477Z,17.83
2023-04-01T10:38:34.798Z,17.90
2023-04-01T10:41:18.045Z,17.94
2023-04-01T10:44:34.464Z,18.04
2023-04-01T10:47:36.176Z,19.63
2023-04-01T10:50:45.188Z,24.59
2023-04-01T10:53:35.148Z,24.92
2023-04-01T10:56:44.113Z,25.59
2023-04-01T10:59:49.432Z,25.63
2023-04-01T11:03:03.461Z,24.98
2023-04-01T11:06:11.602Z,23.71
2023-04-01T11:08:59.646Z,22.53
2023-04-01T11:11:33.463Z,22.06
2023-04-01T11:14:36.436Z,22.15
2023-04-01T11:17:32.934Z,22.04
2023-04-01T11:20:25.210Z,21.82
2023-04-01T11:23:16.989Z,21.74
2023-04-01T11:25:58.778Z,21.71
2023-04-01T11:29:15.024Z,21.85
2023-04-01T11:32:06.986Z,21.97
2023-04-01T11:34:49.183Z,22.35
2023-04-01T11:37:37.819Z,22.51
2023-04-01T11:41:17.432Z,22.57
2023-04-01T11:44:20.236Z,22.35
2023-04-01T11:47:22.250Z,22.41
2023-04-01T11:49:52.947Z,22.69
2023-04-01T11:52:48.948Z,22.55
2023-04-01T11:55:22.899Z,22.12
2023-04-01T11:58:12.572Z,22.43
2023-04-01T12:01:03.578Z,22.53
2023-04-01T12:03:34.192Z,22.45
2023-04-01T12:06:24.846Z,22.64
2023-04-01T12:09:28.782Z,22.73
2023-04-01T12:12:18.675Z,22.83
2023-04-01T12:15:16.704Z,22.87
2023-04-01T12:18:26.376Z,22.87
2023-04-01T12:21:31.474Z,22.63
2023-04-01T12:24:36.907Z,22.94
2023-04-01T12:27:22.185Z,22.94
2023-04-01T12:30:17.052Z,22.73
2023-04-01T12:33:21.652Z,23.02
2023-04-01T12:35:58.584Z,23.03
2023-04-01T12:38:33.209Z,23.11
2023-04-01T12:41:36.547Z,23.31
2023-04-01T12:44:17.464Z,23.38
2023-04-01T12:47:14.011Z,23.18
2023-04-01T12:49:59.535Z,23.51
2023-04-01T12:52:41.661Z,23.27
2023-04-01T12:55:43.199Z,23.15
2023-04-01T12:58:54.201Z,23.33
2023-04-01T13:01:45.819Z,23.44
2023-04-01T13:04:47.448Z,23.72
2023-04-01T13:07:32.626Z,23.65
2023-04-01T13:10:20.610Z,23.53
2023-04-01T13:13:44.542Z,23.98
2023-04-01T13:16:23.870Z,24.13
2023-04-01T13:20:05.481Z,24.09
2023-04-01T13:22:55.265Z,24.22
2023-04-01T13:25:35.773Z,24.28
2023-04-01T13:28:29.139Z,24.06
2023-04-01T13:31:06.670Z,24.55
2023-04-01T13:34:00.629Z,24.73
2023-04-01T13:36:58.483Z,24.86
2023-04-01T13:39:51.018Z,24.88
2023-04-01T13:42:32.848Z,24.81
2023-04-01T13:45:16.478Z,25.43
2023-04-01T13:48:23.965Z,25.18
2023-04-01T13:51:13.650Z,25.10
2023-04-01T13:54:16.292Z,25.20
2023-04-01T13:56:49.956Z,25.59
2023-04-01T13:59:24.241Z,25.65
2023-04-01T14:02:48.315Z,25.38
2023-04-01T14:05:41.911Z,25.81
2023-04-01T14:08:57.973Z,25.52
2023-04-01T14:11:44.709Z,25.59
2023-04-01T14:14:32.528Z,25.81
2023-04-01T14:17:41.124Z,25.46
2023-04-01T14:20:36.755Z,25.61
2023-04-01T14:23:46.222Z,25.93
2023-04-01T14:26:16.560Z,25.85
2023-04-01T14:29:03.564Z,25.95
2023-04-01T14:31:55.446Z,26.07
2023-04-01T14:35:04.661Z,25.96
2023-04-01T14:38:16.480Z,26.02
2023-04-01T14:41:13.218Z,25.52
2023-04-01T14:44:01.113Z,25.88
2023-04-01T14:47:07.706Z,25.75
2023-04-01T14:49:46.309Z,25.48
2023-04-01T14:52:33.472Z,25.53
2023-04-01T14:55:05.870Z,25.30
2023-04-01T14:57:38.760Z,25.58
2023-04-01T15:00:20.955Z,25.61
2023-04-01T15:03:01.376Z,25.62
2023-04-01T15:05:40.966Z,25.59
2023-04-01T15:08:33.442Z,25.66
2023-04-01T15:11:36.942Z,25.75
2023-04-01T15:14:30.366Z,25.69
2023-04-01T15:17:21.022Z,25.90
2023-04-01T15:19:59.883Z,25.79
2023-04-01T15:23:05.207Z,25.99
2023-04-01T15:25:58.608Z,25.89
2023-04-01T15:28:43.919Z,26.12
2023-04-01T15:31:22.685Z,26.03
2023-04-01T15:34:06.421Z,26.29
2023-04-01T15:36:41.476Z,26.00
2023-04-01T15:39:22.150Z,26.16
2023-04-01T15:42:17.748Z,25.96
2023-04-01T15:45:30.769Z,26.29
2023-04-01T15:48:38.886Z,26.27
2023-04-01T15:51:20.798Z,26.36
2023-04-01T15:54:11.964Z,26.44
2023-04-01T15:56:55.776Z,26.26
2023-04-01T15:59:33.117Z,26.57
2023-04-01T16:02:22.920Z,26.70
2023-04-01T16:04:58.802Z,26.65
2023-04-01T16:07:31.974Z,26.47
2023-04-01T16:10:31.331Z,26.64
2023-04-01T16:13:09.972Z,26.56
2023-04-01T16:16:10.190Z,26.70
2023-04-01T16:18:49.168Z,26.65
2023-04-01T16:21:46.073Z,26.50
2023-04-01T16:24:50.654Z,26.40
2023-04-01T16:27:45.585Z,26.37
2023-04-01T16:30:44.608Z,26.48
2023-04-01T16:34:23.230Z,26.44
2023-04-01T16:37:17.173Z,26.09
2023-04-01T16:40:03.801Z,26.06
2023-04-01T16:42:54.756Z,26.22
2023-04-01T16:45:43.429Z,26.14
2023-04-01T16:48:24.036Z,26.14
2023-04-01T16:51:18.819Z,26.14
2023-04-01T16:54:24.850Z,26.23
2023-04-01T16:57:01.955Z,26.51
2023-04-01T17:00:04.008Z,26.13
2023-04-01T17:03:07.997Z,26.26
2023-04-01T17:05:40.036Z,26.17
2023-04-01T17:08:25.887Z,26.06
2023-04-01T17:11:06.399Z,26.00
2023-04-01T17:14:13.460Z,26.27
2023-04-01T17:17:14.516Z,26.17
2023-04-01T17:20:19.472Z,26.27
2023-04-01T17:22:55.897Z,26.29
2023-04-01T17:25:53.120Z,26.20
2023-04-01T17:29:07.857Z,26.14
2023-04-01T17:31:48.518Z,26.23
2023-04-01T17:34:37.042Z,26.24
2023-04-01T17:37:29.867Z,26.36
2023-04-01T17:40:15.062Z,26.41
2023-04-01T17:42:59.063Z,26.22
2023-04-01T17:45:47.851Z,26.20
2023-04-01T17:48:35.858Z,26.13
2023-04-01T17:51:28.148Z,26.20
2023-04-01T17:54:00.868Z,26.14
2023-04-01T17:56:40.560Z,26.06
2023-04-01T17:59:35.056Z,26.00
2023-04-01T18:02:37.447Z,26.17
2023-04-01T18:05:41.336Z,26.14
2023-04-01T18:08:30.948Z,26.05
2023-04-01T18:11:21.018Z,25.88
2023-04-01T18:14:19.640Z,26.19
2023-04-01T18:16:52.602Z,25.88
2023-04-01T18:19:50.738Z,26.24
2023-04-01T18:22:32.394Z,26.43
2023-04-01T18:25:31.250Z,26.61
2023-04-01T18:28:43.766Z,26.61
2023-04-01T18:32:11.482Z,26.78
2023-04-01T18:34:59.797Z,26.16
2023-04-01T18:37:48.944Z,25.68
2023-04-01T18:40:54.358Z,25.62
2023-04-01T18:43:30.834Z,25.35
2023-04-01T18:46:08.807Z,25.22
2023-04-01T18:48:54.990Z,25.08
2023-04-01T18:51:57.206Z,24.81
2023-04-01T18:54:59.920Z,24.67
2023-04-01T18:57:44.830Z,24.36
2023-04-01T19:00:27.513Z,24.08
2023-04-01T19:03:09.385Z,23.86
2023-04-01T19:05:49.230Z,24.59
2023-04-01T19:08:34.192Z,24.88
2023-04-01T19:11:04.375Z,24.98
2023-04-01T19:13:35.128Z,24.97
2023-04-01T19:16:16.465Z,25.00
2023-04-01T19:19:09.895Z,25.01
2023-04-01T19:22:02.837Z,25.07
2023-04-01T19:24:52.642Z,25.00
2023-04-01T19:27:40.416Z,24.87
2023-04-01T19:30:19.228Z,25.03
2023-04-01T19:32:58.319Z,24.84
2023-04-01T19:36:05.072Z,24.83
2023-04-01T19:38:39.106Z,24.79
2023-04-01T19:41:31.564Z,24.71
2023-04-01T19:44:44.694Z,24.71
2023-04-01T19:47:48.711Z,24.66
2023-04-01T19:50:56.482Z,24.46
2023-04-01T19:53:42.819Z,24.30
2023-04-01T19:56:42.181Z,24.39
2023-04-01T19:59:15.768Z,24.30
2023-04-01T20:02:00.617Z,24.16
2023-04-01T20:04:39.325Z,24.19
2023-04-01T20:07:22.813Z,24.19
2023-04-01T20:10:15.384Z,24.16
2023-04-01T20:12:58.233Z,24.04
2023-04-01T20:15:38.882Z,23.82
2023-04-01T20:18:52.037Z,23.75
2023-04-01T20:21:41.560Z,23.67
2023-04-01T20:24:20.254Z,23.50
2023-04-01T20:27:18.404Z,23.45
2023-04-01T20:30:20.709Z,23.35
2023-04-01T20:33:25.289Z,23.27
2023-04-01T20:36:17.521Z,23.17
2023-04-01T20:39:19.523Z,23.13
2023-04-01T20:42:00.426Z,23.02
2023-04-01T20:45:06.230Z,22.83
2023-04-01T20:48:22.283Z,22.73
2023-04-01T20:51:21.460Z,22.60
2023-04-01T20:54:28.662Z,22.53
2023-04-01T20:57:40.240Z,22.38
2023-04-01T21:00:43.377Z,22.31
2023-04-01T21:03:48.730Z,22.23
2023-04-01T21:06:45.439Z,22.15
2023-04-01T21:09:44.521Z,22.09
2023-04-01T21:12:40.449Z,22.06
2023-04-01T21:15:29.413Z,22.00
2023-04-01T21:18:39.662Z,21.97
2023-04-01T21:21:24.799Z,21.87
2023-04-01T21:24:22.558Z,21.81
2023-04-01T21:27:07.962Z,21.80
2023-04-01T21:29:38.515Z,21.73
2023-04-01T21:32:28.395Z,21.70
2023-04-01T21:35:23.233Z,21.65
2023-04-01T21:38:02.829Z,21.62
2023-04-01T21:41:30.650Z,21.61
2023-04-01T21:44:21.723Z,21.58
2023-04-01T21:46:51.929Z,21.48
2023-04-01T21:49:40.635Z,21.47
2023-04-01T21:52:57.074Z,21.37
2023-04-01T21:55:52.508Z,21.34
2023-04-01T21:58:52.662Z,21.33
2023-04-01T22:01:52.440Z,21.37
2023-04-01T22:04:31.567Z,21.36
2023-04-01T22:07:19.468Z,21.34
2023-04-01T22:10:20.640Z,21.34
2023-04-01T22:12:59.660Z,21.34
2023-04-01T22:15:52.135Z,21.31
2023-04-01T22:18:49.231Z,21.30
2023-04-01T22:21:32.469Z,21.33
2023-04-01T22:24:41.400Z,21.26
2023-04-01T22:27:56.594Z,21.26
2023-04-01T22:30:33.832Z,21.26
2023-04-01T22:33:39.380Z,21.29
2023-04-01T22:36:41.333Z,21.26
2023-04-01T22:39:28.189Z,21.22
2023-04-01T22:42:13.091Z,21.23
2023-04-01T22:45:02.787Z,21.16
2023-04-01T22:48:04.314Z,21.14
2023-04-01T22:50:46.683Z,21.09
2023-04-01T22:53:27.290Z,21.03
2023-04-01T22:56:07.350Z,21.02
2023-04-01T22:58:44.441Z,21.02
2023-04-01T23:01:34.556Z,20.97
2023-04-01T23:04:11.731Z,21.03
2023-04-01T23:06:53.301Z,20.97
2023-04-01T23:09:39.254Z,20.95
2023-04-01T23:12:17.809Z,20.93
2023-04-01T23:15:04.294Z,20.96
2023-04-01T23:17:49.513Z,20.92
2023-04-01T23:20:37.917Z,20.92
2023-04-01T23:23:24.500Z,20.87
2023-04-01T23:26:13.230Z,20.87
2023-04-01T23:28:48.665Z,20.87
2023-04-01T23:31:48.592Z,20.85
2023-04-01T23:34:36.684Z,20.89
2023-04-01T23:37:18.524Z,20.85
2023-04-01T23:40:01.947Z,20.80
2023-04-01T23:42:41.181Z,20.77
2023-04-01T23:45:22.979Z,20.76
2023-04-01T23:47:53.376Z,20.83
2023-04-01T23:53:52.229Z,20.72
2023-04-01T23:56:24.075Z,20.68
2023-04-01T23:58:58.287Z,20.66
